sensor_id;sensor_type;location;lat;lon;timestamp;P1;durP1;ratioP1;P2;durP2;ratioP2
19456;SDS011;9867;48.094;11.478;2022-09-13T00:02:15;2.70;;;2.50;;
19456;SDS011;9867;48.094;11.478;2022-09-13T00:04:43;3.27;;;3.07;;
19456;SDS011;9867;48.094;11.478;2022-09-13T00:07:11;3.27;;;2.73;;
19456;SDS011;9867;48.094;11.478;2022-09-13T00:09:40;3.90;;;2.73;;
19456;SDS011;9867;48.094;11.478;2022-09-13T00:12:08;4.83;;;2.87;;
19456;SDS011;9867;48.094;11.478;2022-09-13T00:14:35;2.37;;;2.20;;
19456;SDS011;9867;48.094;11.478;2022-09-13T00:17:03;2.97;;;2.60;;
19456;SDS011;9867;48.094;11.478;2022-09-13T00:19:31;4.00;;;2.97;;
19456;SDS011;9867;48.094;11.478;2022-09-13T00:21:59;2.90;;;2.50;;
19456;SDS011;9867;48.094;11.478;2022-09-13T00:24:27;2.67;;;2.47;;
19456;SDS011;9867;48.094;11.478;2022-09-13T00:26:56;2.97;;;2.50;;
19456;SDS011;9867;48.094;11.478;2022-09-13T00:29:24;3.20;;;2.33;;
19456;SDS011;9867;48.094;11.478;2022-09-13T00:31:52;3.73;;;2.50;;
19456;SDS011;9867;48.094;11.478;2022-09-13T00:34:20;2.50;;;2.30;;
19456;SDS011;9867;48.094;11.478;2022-09-13T00:36:48;2.90;;;2.63;;
19456;SDS011;9867;48.094;11.478;2022-09-13T00:39:16;2.33;;;2.23;;
19456;SDS011;9867;48.094;11.478;2022-09-13T00:41:44;2.47;;;2.37;;
19456;SDS011;9867;48.094;11.478;2022-09-13T00:47:23;2.30;;;2.13;;
19456;SDS011;9867;48.094;11.478;2022-09-13T00:49:57;2.57;;;2.40;;
19456;SDS011;9867;48.094;11.478;2022-09-13T00:52:28;4.10;;;2.60;;
19456;SDS011;9867;48.094;11.478;2022-09-13T00:54:59;2.30;;;2.20;;
19456;SDS011;9867;48.094;11.478;2022-09-13T00:57:31;3.27;;;2.50;;
19456;SDS011;9867;48.094;11.478;2022-09-13T01:00:05;4.53;;;2.40;;
19456;SDS011;9867;48.094;11.478;2022-09-13T01:02:39;2.47;;;2.30;;
19456;SDS011;9867;48.094;11.478;2022-09-13T01:05:10;2.47;;;2.27;;
19456;SDS011;9867;48.094;11.478;2022-09-13T01:07:40;3.43;;;2.33;;
19456;SDS011;9867;48.094;11.478;2022-09-13T01:10:09;2.30;;;2.20;;
19456;SDS011;9867;48.094;11.478;2022-09-13T01:12:39;3.60;;;2.70;;
19456;SDS011;9867;48.094;11.478;2022-09-13T01:15:15;2.60;;;2.40;;
19456;SDS011;9867;48.094;11.478;2022-09-13T01:17:43;2.30;;;2.20;;
19456;SDS011;9867;48.094;11.478;2022-09-13T01:20:11;2.63;;;2.27;;
19456;SDS011;9867;48.094;11.478;2022-09-13T01:25:53;2.83;;;2.20;;
19456;SDS011;9867;48.094;11.478;2022-09-13T01:32:01;2.30;;;2.10;;
19456;SDS011;9867;48.094;11.478;2022-09-13T01:34:40;2.27;;;2.13;;
19456;SDS011;9867;48.094;11.478;2022-09-13T01:37:25;3.80;;;2.30;;
19456;SDS011;9867;48.094;11.478;2022-09-13T01:40:14;2.27;;;2.07;;
19456;SDS011;9867;48.094;11.478;2022-09-13T01:42:56;2.60;;;2.33;;
19456;SDS011;9867;48.094;11.478;2022-09-13T01:45:36;2.47;;;2.37;;
19456;SDS011;9867;48.094;11.478;2022-09-13T01:48:16;2.40;;;2.20;;
19456;SDS011;9867;48.094;11.478;2022-09-13T01:50:51;2.33;;;2.10;;
19456;SDS011;9867;48.094;11.478;2022-09-13T01:53:30;2.00;;;1.90;;
19456;SDS011;9867;48.094;11.478;2022-09-13T01:56:03;3.97;;;2.20;;
19456;SDS011;9867;48.094;11.478;2022-09-13T01:58:37;2.23;;;2.10;;
19456;SDS011;9867;48.094;11.478;2022-09-13T02:01:11;2.50;;;2.30;;
19456;SDS011;9867;48.094;11.478;2022-09-13T02:03:47;2.60;;;1.87;;
19456;SDS011;9867;48.094;11.478;2022-09-13T02:06:21;2.30;;;2.10;;
19456;SDS011;9867;48.094;11.478;2022-09-13T02:08:53;2.30;;;2.20;;
19456;SDS011;9867;48.094;11.478;2022-09-13T02:11:23;2.03;;;1.93;;
19456;SDS011;9867;48.094;11.478;2022-09-13T02:13:53;1.90;;;1.73;;
19456;SDS011;9867;48.094;11.478;2022-09-13T02:16:25;2.20;;;2.00;;
19456;SDS011;9867;48.094;11.478;2022-09-13T02:19:00;3.03;;;2.07;;
19456;SDS011;9867;48.094;11.478;2022-09-13T02:21:35;2.30;;;1.93;;
19456;SDS011;9867;48.094;11.478;2022-09-13T02:24:06;1.90;;;1.80;;
19456;SDS011;9867;48.094;11.478;2022-09-13T02:26:36;2.10;;;1.90;;
19456;SDS011;9867;48.094;11.478;2022-09-13T02:29:07;2.30;;;1.90;;
19456;SDS011;9867;48.094;11.478;2022-09-13T02:31:40;2.23;;;1.77;;
19456;SDS011;9867;48.094;11.478;2022-09-13T02:34:16;2.20;;;1.90;;
19456;SDS011;9867;48.094;11.478;2022-09-13T02:36:48;2.60;;;1.90;;
19456;SDS011;9867;48.094;11.478;2022-09-13T02:39:19;1.97;;;1.87;;
19456;SDS011;9867;48.094;11.478;2022-09-13T02:41:51;1.90;;;1.80;;
19456;SDS011;9867;48.094;11.478;2022-09-13T02:44:24;2.87;;;1.70;;
19456;SDS011;9867;48.094;11.478;2022-09-13T02:47:05;1.80;;;1.70;;
19456;SDS011;9867;48.094;11.478;2022-09-13T02:49:42;2.00;;;1.90;;
19456;SDS011;9867;48.094;11.478;2022-09-13T02:52:20;3.83;;;1.97;;
19456;SDS011;9867;48.094;11.478;2022-09-13T02:55:00;1.90;;;1.80;;
19456;SDS011;9867;48.094;11.478;2022-09-13T02:57:36;2.43;;;2.23;;
19456;SDS011;9867;48.094;11.478;2022-09-13T03:00:07;2.00;;;1.90;;
19456;SDS011;9867;48.094;11.478;2022-09-13T03:02:36;2.07;;;1.90;;
19456;SDS011;9867;48.094;11.478;2022-09-13T03:05:08;2.20;;;2.00;;
19456;SDS011;9867;48.094;11.478;2022-09-13T03:07:36;2.80;;;2.10;;
19456;SDS011;9867;48.094;11.478;2022-09-13T03:10:04;1.83;;;1.73;;
19456;SDS011;9867;48.094;11.478;2022-09-13T03:12:42;2.10;;;1.60;;
19456;SDS011;9867;48.094;11.478;2022-09-13T03:15:20;1.90;;;1.80;;
19456;SDS011;9867;48.094;11.478;2022-09-13T03:17:58;2.20;;;2.00;;
19456;SDS011;9867;48.094;11.478;2022-09-13T03:20:38;2.30;;;1.80;;
19456;SDS011;9867;48.094;11.478;2022-09-13T03:23:26;2.30;;;2.10;;
19456;SDS011;9867;48.094;11.478;2022-09-13T03:26:10;2.07;;;1.93;;
19456;SDS011;9867;48.094;11.478;2022-09-13T03:28:52;2.03;;;1.80;;
19456;SDS011;9867;48.094;11.478;2022-09-13T03:31:30;2.30;;;1.80;;
19456;SDS011;9867;48.094;11.478;2022-09-13T03:34:03;1.90;;;1.80;;
19456;SDS011;9867;48.094;11.478;2022-09-13T03:36:40;2.47;;;2.07;;
19456;SDS011;9867;48.094;11.478;2022-09-13T03:39:15;2.73;;;2.00;;
19456;SDS011;9867;48.094;11.478;2022-09-13T03:41:52;1.70;;;1.60;;
19456;SDS011;9867;48.094;11.478;2022-09-13T03:44:23;2.77;;;2.20;;
19456;SDS011;9867;48.094;11.478;2022-09-13T03:46:54;2.93;;;1.90;;
19456;SDS011;9867;48.094;11.478;2022-09-13T03:49:25;2.50;;;2.07;;
19456;SDS011;9867;48.094;11.478;2022-09-13T03:51:56;2.13;;;1.93;;
19456;SDS011;9867;48.094;11.478;2022-09-13T03:54:26;2.33;;;1.70;;
19456;SDS011;9867;48.094;11.478;2022-09-13T03:57:09;1.70;;;1.60;;
19456;SDS011;9867;48.094;11.478;2022-09-13T03:59:40;2.37;;;2.20;;
19456;SDS011;9867;48.094;11.478;2022-09-13T04:02:12;2.27;;;1.87;;
19456;SDS011;9867;48.094;11.478;2022-09-13T04:04:42;1.93;;;1.83;;
19456;SDS011;9867;48.094;11.478;2022-09-13T04:07:13;2.13;;;2.00;;
19456;SDS011;9867;48.094;11.478;2022-09-13T04:09:42;1.90;;;1.80;;
19456;SDS011;9867;48.094;11.478;2022-09-13T04:12:11;2.40;;;1.93;;
19456;SDS011;9867;48.094;11.478;2022-09-13T04:14:40;3.83;;;1.90;;
19456;SDS011;9867;48.094;11.478;2022-09-13T04:17:10;1.97;;;1.87;;
19456;SDS011;9867;48.094;11.478;2022-09-13T04:19:39;2.50;;;1.90;;
19456;SDS011;9867;48.094;11.478;2022-09-13T04:22:07;2.37;;;2.17;;
19456;SDS011;9867;48.094;11.478;2022-09-13T04:24:36;2.20;;;2.03;;
19456;SDS011;9867;48.094;11.478;2022-09-13T04:27:05;1.77;;;1.67;;
19456;SDS011;9867;48.094;11.478;2022-09-13T04:29:33;3.57;;;1.90;;
19456;SDS011;9867;48.094;11.478;2022-09-13T04:32:01;2.00;;;1.90;;
19456;SDS011;9867;48.094;11.478;2022-09-13T04:34:29;3.03;;;1.87;;
19456;SDS011;9867;48.094;11.478;2022-09-13T04:36:57;1.80;;;1.70;;
19456;SDS011;9867;48.094;11.478;2022-09-13T04:39:25;1.60;;;1.50;;
19456;SDS011;9867;48.094;11.478;2022-09-13T04:41:55;1.77;;;1.67;;
19456;SDS011;9867;48.094;11.478;2022-09-13T04:44:23;3.50;;;1.97;;
19456;SDS011;9867;48.094;11.478;2022-09-13T04:46:51;4.30;;;1.77;;
19456;SDS011;9867;48.094;11.478;2022-09-13T04:49:19;2.90;;;2.00;;
19456;SDS011;9867;48.094;11.478;2022-09-13T04:51:47;2.67;;;1.87;;
19456;SDS011;9867;48.094;11.478;2022-09-13T04:54:15;2.07;;;1.97;;
19456;SDS011;9867;48.094;11.478;2022-09-13T04:56:43;2.10;;;1.90;;
19456;SDS011;9867;48.094;11.478;2022-09-13T04:59:13;1.80;;;1.70;;
19456;SDS011;9867;48.094;11.478;2022-09-13T05:01:42;1.70;;;1.60;;
19456;SDS011;9867;48.094;11.478;2022-09-13T05:04:10;1.80;;;1.70;;
19456;SDS011;9867;48.094;11.478;2022-09-13T05:06:38;1.73;;;1.63;;
19456;SDS011;9867;48.094;11.478;2022-09-13T05:09:05;2.37;;;1.93;;
19456;SDS011;9867;48.094;11.478;2022-09-13T05:11:33;3.57;;;1.80;;
19456;SDS011;9867;48.094;11.478;2022-09-13T05:14:02;1.93;;;1.83;;
19456;SDS011;9867;48.094;11.478;2022-09-13T05:16:32;1.70;;;1.60;;
19456;SDS011;9867;48.094;11.478;2022-09-13T05:19:01;3.23;;;1.77;;
19456;SDS011;9867;48.094;11.478;2022-09-13T05:21:29;1.83;;;1.73;;
19456;SDS011;9867;48.094;11.478;2022-09-13T05:23:58;2.23;;;1.90;;
19456;SDS011;9867;48.094;11.478;2022-09-13T05:26:26;1.70;;;1.60;;
19456;SDS011;9867;48.094;11.478;2022-09-13T05:28:56;3.67;;;1.77;;
19456;SDS011;9867;48.094;11.478;2022-09-13T05:31:25;5.53;;;1.53;;
19456;SDS011;9867;48.094;11.478;2022-09-13T05:33:57;2.43;;;1.70;;
19456;SDS011;9867;48.094;11.478;2022-09-13T05:36:26;2.00;;;1.77;;
19456;SDS011;9867;48.094;11.478;2022-09-13T05:38:55;2.80;;;1.60;;
19456;SDS011;9867;48.094;11.478;2022-09-13T05:41:43;2.80;;;1.67;;
19456;SDS011;9867;48.094;11.478;2022-09-13T05:44:12;1.93;;;1.70;;
19456;SDS011;9867;48.094;11.478;2022-09-13T05:46:40;1.77;;;1.67;;
19456;SDS011;9867;48.094;11.478;2022-09-13T05:49:11;2.40;;;1.63;;
19456;SDS011;9867;48.094;11.478;2022-09-13T05:51:39;1.63;;;1.53;;
19456;SDS011;9867;48.094;11.478;2022-09-13T05:54:09;4.37;;;1.90;;
19456;SDS011;9867;48.094;11.478;2022-09-13T05:56:38;1.83;;;1.73;;
19456;SDS011;9867;48.094;11.478;2022-09-13T05:59:10;1.63;;;1.50;;
19456;SDS011;9867;48.094;11.478;2022-09-13T06:01:38;2.43;;;1.60;;
19456;SDS011;9867;48.094;11.478;2022-09-13T06:04:07;1.60;;;1.50;;
19456;SDS011;9867;48.094;11.478;2022-09-13T06:06:36;2.13;;;1.80;;
19456;SDS011;9867;48.094;11.478;2022-09-13T06:09:04;1.70;;;1.60;;
19456;SDS011;9867;48.094;11.478;2022-09-13T06:11:34;1.83;;;1.73;;
19456;SDS011;9867;48.094;11.478;2022-09-13T06:14:01;1.60;;;1.50;;
19456;SDS011;9867;48.094;11.478;2022-09-13T06:16:30;2.10;;;1.90;;
19456;SDS011;9867;48.094;11.478;2022-09-13T06:18:58;4.77;;;1.80;;
19456;SDS011;9867;48.094;11.478;2022-09-13T06:21:26;3.23;;;1.93;;
19456;SDS011;9867;48.094;11.478;2022-09-13T06:23:56;1.70;;;1.60;;
19456;SDS011;9867;48.094;11.478;2022-09-13T06:26:24;6.83;;;2.00;;
19456;SDS011;9867;48.094;11.478;2022-09-13T06:28:55;3.30;;;2.30;;
19456;SDS011;9867;48.094;11.478;2022-09-13T06:31:24;3.93;;;2.20;;
19456;SDS011;9867;48.094;11.478;2022-09-13T06:34:00;3.83;;;1.67;;
19456;SDS011;9867;48.094;11.478;2022-09-13T06:36:28;2.43;;;2.20;;
19456;SDS011;9867;48.094;11.478;2022-09-13T06:38:58;5.07;;;3.10;;
19456;SDS011;9867;48.094;11.478;2022-09-13T06:41:29;6.07;;;4.27;;
19456;SDS011;9867;48.094;11.478;2022-09-13T06:43:59;3.10;;;2.20;;
19456;SDS011;9867;48.094;11.478;2022-09-13T06:46:28;2.50;;;1.80;;
19456;SDS011;9867;48.094;11.478;2022-09-13T06:48:57;2.30;;;1.70;;
19456;SDS011;9867;48.094;11.478;2022-09-13T06:51:26;2.93;;;2.63;;
19456;SDS011;9867;48.094;11.478;2022-09-13T06:53:55;10.40;;;2.07;;
19456;SDS011;9867;48.094;11.478;2022-09-13T06:56:25;3.57;;;2.20;;
19456;SDS011;9867;48.094;11.478;2022-09-13T06:58:57;2.10;;;1.90;;
19456;SDS011;9867;48.094;11.478;2022-09-13T07:01:27;3.60;;;1.37;;
19456;SDS011;9867;48.094;11.478;2022-09-13T07:03:58;4.23;;;1.73;;
19456;SDS011;9867;48.094;11.478;2022-09-13T07:06:27;2.33;;;1.57;;
19456;SDS011;9867;48.094;11.478;2022-09-13T07:08:57;2.10;;;1.37;;
19456;SDS011;9867;48.094;11.478;2022-09-13T07:11:30;1.30;;;1.20;;
19456;SDS011;9867;48.094;11.478;2022-09-13T07:13:59;2.50;;;1.50;;
19456;SDS011;9867;48.094;11.478;2022-09-13T07:16:27;1.50;;;1.40;;
19456;SDS011;9867;48.094;11.478;2022-09-13T07:18:58;2.93;;;1.60;;
19456;SDS011;9867;48.094;11.478;2022-09-13T07:21:27;2.47;;;1.43;;
19456;SDS011;9867;48.094;11.478;2022-09-13T07:23:55;0.97;;;0.97;;
19456;SDS011;9867;48.094;11.478;2022-09-13T07:26:24;4.20;;;1.53;;
19456;SDS011;9867;48.094;11.478;2022-09-13T07:28:55;1.30;;;1.20;;
19456;SDS011;9867;48.094;11.478;2022-09-13T07:31:25;1.53;;;1.20;;
19456;SDS011;9867;48.094;11.478;2022-09-13T07:33:55;1.57;;;1.00;;
19456;SDS011;9867;48.094;11.478;2022-09-13T07:36:24;3.53;;;1.03;;
19456;SDS011;9867;48.094;11.478;2022-09-13T07:38:53;1.97;;;1.33;;
19456;SDS011;9867;48.094;11.478;2022-09-13T07:41:21;1.70;;;1.60;;
19456;SDS011;9867;48.094;11.478;2022-09-13T07:43:51;1.33;;;1.23;;
19456;SDS011;9867;48.094;11.478;2022-09-13T07:46:21;3.27;;;1.00;;
19456;SDS011;9867;48.094;11.478;2022-09-13T07:48:51;3.03;;;1.13;;
19456;SDS011;9867;48.094;11.478;2022-09-13T07:51:20;1.00;;;1.00;;
19456;SDS011;9867;48.094;11.478;2022-09-13T07:53:49;1.57;;;0.93;;
19456;SDS011;9867;48.094;11.478;2022-09-13T07:56:23;1.07;;;0.97;;
19456;SDS011;9867;48.094;11.478;2022-09-13T07:58:52;2.37;;;1.10;;
19456;SDS011;9867;48.094;11.478;2022-09-13T08:01:23;1.67;;;0.90;;
19456;SDS011;9867;48.094;11.478;2022-09-13T08:03:53;0.90;;;0.90;;
19456;SDS011;9867;48.094;11.478;2022-09-13T08:06:22;2.83;;;1.10;;
19456;SDS011;9867;48.094;11.478;2022-09-13T08:08:51;0.90;;;0.80;;
19456;SDS011;9867;48.094;11.478;2022-09-13T08:11:20;0.80;;;0.80;;
19456;SDS011;9867;48.094;11.478;2022-09-13T08:13:49;1.50;;;0.80;;
19456;SDS011;9867;48.094;11.478;2022-09-13T08:16:19;2.30;;;0.80;;
19456;SDS011;9867;48.094;11.478;2022-09-13T08:18:50;1.53;;;0.90;;
19456;SDS011;9867;48.094;11.478;2022-09-13T08:21:19;0.83;;;0.60;;
19456;SDS011;9867;48.094;11.478;2022-09-13T08:23:48;1.40;;;1.00;;
19456;SDS011;9867;48.094;11.478;2022-09-13T08:26:20;0.80;;;0.80;;
19456;SDS011;9867;48.094;11.478;2022-09-13T08:28:48;2.30;;;0.97;;
19456;SDS011;9867;48.094;11.478;2022-09-13T08:31:16;1.53;;;0.80;;
19456;SDS011;9867;48.094;11.478;2022-09-13T08:33:46;10.30;;;9.30;;
19456;SDS011;9867;48.094;11.478;2022-09-13T08:36:16;4.53;;;1.90;;
19456;SDS011;9867;48.094;11.478;2022-09-13T08:38:45;3.30;;;0.83;;
19456;SDS011;9867;48.094;11.478;2022-09-13T08:41:20;1.57;;;0.80;;
19456;SDS011;9867;48.094;11.478;2022-09-13T08:44:05;3.13;;;1.03;;
19456;SDS011;9867;48.094;11.478;2022-09-13T08:46:40;1.20;;;0.90;;
19456;SDS011;9867;48.094;11.478;2022-09-13T08:49:12;3.20;;;1.10;;
19456;SDS011;9867;48.094;11.478;2022-09-13T08:51:46;0.87;;;0.80;;
19456;SDS011;9867;48.094;11.478;2022-09-13T08:54:17;2.57;;;0.87;;
19456;SDS011;9867;48.094;11.478;2022-09-13T08:56:49;1.63;;;0.93;;
19456;SDS011;9867;48.094;11.478;2022-09-13T08:59:27;0.97;;;0.87;;
19456;SDS011;9867;48.094;11.478;2022-09-13T09:02:04;0.83;;;0.70;;
19456;SDS011;9867;48.094;11.478;2022-09-13T09:04:51;0.80;;;0.80;;
19456;SDS011;9867;48.094;11.478;2022-09-13T09:07:25;3.20;;;1.13;;
19456;SDS011;9867;48.094;11.478;2022-09-13T09:09:56;1.77;;;1.10;;
19456;SDS011;9867;48.094;11.478;2022-09-13T09:12:30;2.07;;;0.93;;
19456;SDS011;9867;48.094;11.478;2022-09-13T09:15:07;1.80;;;0.90;;
19456;SDS011;9867;48.094;11.478;2022-09-13T09:17:45;2.30;;;1.03;;
19456;SDS011;9867;48.094;11.478;2022-09-13T09:20:27;1.97;;;1.00;;
19456;SDS011;9867;48.094;11.478;2022-09-13T09:23:01;1.57;;;0.83;;
19456;SDS011;9867;48.094;11.478;2022-09-13T09:25:31;1.60;;;1.10;;
19456;SDS011;9867;48.094;11.478;2022-09-13T09:28:01;2.30;;;1.00;;
19456;SDS011;9867;48.094;11.478;2022-09-13T09:30:40;1.33;;;1.23;;
19456;SDS011;9867;48.094;11.478;2022-09-13T09:33:18;4.83;;;1.77;;
19456;SDS011;9867;48.094;11.478;2022-09-13T09:36:01;1.27;;;0.87;;
19456;SDS011;9867;48.094;11.478;2022-09-13T09:38:39;1.20;;;1.20;;
19456;SDS011;9867;48.094;11.478;2022-09-13T09:41:11;1.73;;;0.80;;
19456;SDS011;9867;48.094;11.478;2022-09-13T09:43:49;2.43;;;1.10;;
19456;SDS011;9867;48.094;11.478;2022-09-13T09:46:25;2.50;;;0.90;;
19456;SDS011;9867;48.094;11.478;2022-09-13T09:49:01;1.23;;;0.93;;
19456;SDS011;9867;48.094;11.478;2022-09-13T09:52:00;1.80;;;0.87;;
19456;SDS011;9867;48.094;11.478;2022-09-13T09:54:33;2.47;;;1.03;;
19456;SDS011;9867;48.094;11.478;2022-09-13T09:57:03;1.27;;;1.10;;
19456;SDS011;9867;48.094;11.478;2022-09-13T09:59:33;3.37;;;0.90;;
19456;SDS011;9867;48.094;11.478;2022-09-13T10:02:10;1.63;;;0.90;;
19456;SDS011;9867;48.094;11.478;2022-09-13T10:04:41;2.00;;;1.00;;
19456;SDS011;9867;48.094;11.478;2022-09-13T10:07:21;1.90;;;0.90;;
19456;SDS011;9867;48.094;11.478;2022-09-13T10:09:56;1.77;;;1.10;;
19456;SDS011;9867;48.094;11.478;2022-09-13T10:12:26;1.40;;;1.00;;
19456;SDS011;9867;48.094;11.478;2022-09-13T10:15:09;3.63;;;0.83;;
19456;SDS011;9867;48.094;11.478;2022-09-13T10:17:43;1.90;;;1.30;;
19456;SDS011;9867;48.094;11.478;2022-09-13T10:20:28;0.80;;;0.80;;
19456;SDS011;9867;48.094;11.478;2022-09-13T10:23:19;1.30;;;1.17;;
19456;SDS011;9867;48.094;11.478;2022-09-13T10:28:40;1.30;;;1.20;;
19456;SDS011;9867;48.094;11.478;2022-09-13T10:31:12;5.23;;;1.00;;
19456;SDS011;9867;48.094;11.478;2022-09-13T10:33:43;3.33;;;1.17;;
19456;SDS011;9867;48.094;11.478;2022-09-13T10:36:20;2.20;;;0.80;;
19456;SDS011;9867;48.094;11.478;2022-09-13T10:39:12;1.00;;;1.00;;
19456;SDS011;9867;48.094;11.478;2022-09-13T10:41:49;2.23;;;1.10;;
19456;SDS011;9867;48.094;11.478;2022-09-13T10:44:21;1.23;;;0.90;;
19456;SDS011;9867;48.094;11.478;2022-09-13T10:46:53;1.63;;;0.80;;
19456;SDS011;9867;48.094;11.478;2022-09-13T10:49:35;1.80;;;1.20;;
19456;SDS011;9867;48.094;11.478;2022-09-13T10:55:14;1.33;;;0.90;;
19456;SDS011;9867;48.094;11.478;2022-09-13T10:57:53;5.90;;;1.03;;
19456;SDS011;9867;48.094;11.478;2022-09-13T11:00:22;2.37;;;0.73;;
19456;SDS011;9867;48.094;11.478;2022-09-13T11:03:11;2.37;;;0.90;;
19456;SDS011;9867;48.094;11.478;2022-09-13T11:05:53;1.73;;;0.80;;
19456;SDS011;9867;48.094;11.478;2022-09-13T11:08:34;1.67;;;0.90;;
19456;SDS011;9867;48.094;11.478;2022-09-13T11:11:10;0.93;;;0.77;;
19456;SDS011;9867;48.094;11.478;2022-09-13T11:13:56;2.17;;;0.93;;
19456;SDS011;9867;48.094;11.478;2022-09-13T11:16:38;0.70;;;0.60;;
19456;SDS011;9867;48.094;11.478;2022-09-13T11:19:25;1.43;;;0.80;;
19456;SDS011;9867;48.094;11.478;2022-09-13T11:22:17;0.60;;;0.50;;
19456;SDS011;9867;48.094;11.478;2022-09-13T11:24:59;0.50;;;0.50;;
19456;SDS011;9867;48.094;11.478;2022-09-13T11:27:42;2.77;;;0.70;;
19456;SDS011;9867;48.094;11.478;2022-09-13T11:30:20;2.73;;;0.80;;
19456;SDS011;9867;48.094;11.478;2022-09-13T11:33:18;1.27;;;1.00;;
19456;SDS011;9867;48.094;11.478;2022-09-13T11:36:01;1.13;;;0.67;;
19456;SDS011;9867;48.094;11.478;2022-09-13T11:38:45;2.67;;;0.83;;
19456;SDS011;9867;48.094;11.478;2022-09-13T11:41:24;0.80;;;0.60;;
19456;SDS011;9867;48.094;11.478;2022-09-13T11:44:13;1.20;;;0.67;;
19456;SDS011;9867;48.094;11.478;2022-09-13T11:46:58;0.77;;;0.70;;
19456;SDS011;9867;48.094;11.478;2022-09-13T11:49:36;0.70;;;0.67;;
19456;SDS011;9867;48.094;11.478;2022-09-13T11:52:15;1.87;;;0.70;;
19456;SDS011;9867;48.094;11.478;2022-09-13T11:54:58;1.37;;;0.70;;
19456;SDS011;9867;48.094;11.478;2022-09-13T11:57:34;0.60;;;0.50;;
19456;SDS011;9867;48.094;11.478;2022-09-13T12:00:12;2.27;;;0.93;;
19456;SDS011;9867;48.094;11.478;2022-09-13T12:02:48;0.60;;;0.60;;
19456;SDS011;9867;48.094;11.478;2022-09-13T12:05:25;0.83;;;0.80;;
19456;SDS011;9867;48.094;11.478;2022-09-13T12:07:57;0.80;;;0.80;;
19456;SDS011;9867;48.094;11.478;2022-09-13T12:10:33;0.70;;;0.60;;
19456;SDS011;9867;48.094;11.478;2022-09-13T12:13:11;2.53;;;0.70;;
19456;SDS011;9867;48.094;11.478;2022-09-13T12:15:43;1.37;;;0.83;;
19456;SDS011;9867;48.094;11.478;2022-09-13T12:18:16;0.87;;;0.60;;
19456;SDS011;9867;48.094;11.478;2022-09-13T12:20:49;2.30;;;0.80;;
19456;SDS011;9867;48.094;11.478;2022-09-13T12:23:21;2.57;;;0.90;;
19456;SDS011;9867;48.094;11.478;2022-09-13T12:25:54;1.10;;;1.00;;
19456;SDS011;9867;48.094;11.478;2022-09-13T12:28:26;2.10;;;0.83;;
19456;SDS011;9867;48.094;11.478;2022-09-13T12:30:57;1.07;;;0.90;;
19456;SDS011;9867;48.094;11.478;2022-09-13T12:33:28;3.60;;;0.90;;
19456;SDS011;9867;48.094;11.478;2022-09-13T12:36:03;1.10;;;0.67;;
19456;SDS011;9867;48.094;11.478;2022-09-13T12:39:10;1.53;;;0.80;;
19456;SDS011;9867;48.094;11.478;2022-09-13T12:41:52;1.30;;;0.70;;
19456;SDS011;9867;48.094;11.478;2022-09-13T12:50:34;2.93;;;0.80;;
19456;SDS011;9867;48.094;11.478;2022-09-13T12:53:28;2.00;;;0.77;;
19456;SDS011;9867;48.094;11.478;2022-09-13T12:56:27;0.77;;;0.77;;
19456;SDS011;9867;48.094;11.478;2022-09-13T13:02:21;2.73;;;0.87;;
19456;SDS011;9867;48.094;11.478;2022-09-13T13:04:53;0.90;;;0.77;;
19456;SDS011;9867;48.094;11.478;2022-09-13T13:07:25;1.83;;;0.93;;
19456;SDS011;9867;48.094;11.478;2022-09-13T13:09:55;2.70;;;0.60;;
19456;SDS011;9867;48.094;11.478;2022-09-13T13:12:26;3.33;;;0.60;;
19456;SDS011;9867;48.094;11.478;2022-09-13T13:14:56;2.17;;;0.70;;
19456;SDS011;9867;48.094;11.478;2022-09-13T13:23:25;2.03;;;0.80;;
19456;SDS011;9867;48.094;11.478;2022-09-13T13:25:55;6.37;;;1.10;;
19456;SDS011;9867;48.094;11.478;2022-09-13T13:31:34;0.60;;;0.60;;
19456;SDS011;9867;48.094;11.478;2022-09-13T13:36:57;1.03;;;0.80;;
19456;SDS011;9867;48.094;11.478;2022-09-13T13:39:33;2.60;;;0.80;;
19456;SDS011;9867;48.094;11.478;2022-09-13T13:42:11;1.00;;;0.80;;
19456;SDS011;9867;48.094;11.478;2022-09-13T13:44:56;0.87;;;0.63;;
19456;SDS011;9867;48.094;11.478;2022-09-13T13:47:49;1.17;;;0.70;;
19456;SDS011;9867;48.094;11.478;2022-09-13T13:50:20;0.70;;;0.70;;
19456;SDS011;9867;48.094;11.478;2022-09-13T13:52:50;1.40;;;0.70;;
19456;SDS011;9867;48.094;11.478;2022-09-13T13:55:29;1.13;;;0.50;;
19456;SDS011;9867;48.094;11.478;2022-09-13T13:58:28;0.93;;;0.80;;
19456;SDS011;9867;48.094;11.478;2022-09-13T14:01:02;1.10;;;0.70;;
19456;SDS011;9867;48.094;11.478;2022-09-13T14:03:33;1.63;;;0.60;;
19456;SDS011;9867;48.094;11.478;2022-09-13T14:06:17;1.80;;;0.90;;
19456;SDS011;9867;48.094;11.478;2022-09-13T14:08:51;2.67;;;1.00;;
19456;SDS011;9867;48.094;11.478;2022-09-13T14:11:44;1.40;;;0.80;;
19456;SDS011;9867;48.094;11.478;2022-09-13T14:14:27;0.80;;;0.60;;
19456;SDS011;9867;48.094;11.478;2022-09-13T14:17:22;0.70;;;0.70;;
19456;SDS011;9867;48.094;11.478;2022-09-13T14:19:58;1.77;;;0.60;;
19456;SDS011;9867;48.094;11.478;2022-09-13T14:22:29;1.00;;;0.90;;
19456;SDS011;9867;48.094;11.478;2022-09-13T14:24:58;1.43;;;0.60;;
19456;SDS011;9867;48.094;11.478;2022-09-13T14:27:41;4.50;;;1.30;;
19456;SDS011;9867;48.094;11.478;2022-09-13T14:30:20;2.40;;;1.30;;
19456;SDS011;9867;48.094;11.478;2022-09-13T14:32:49;4.83;;;1.00;;
19456;SDS011;9867;48.094;11.478;2022-09-13T14:35:23;1.13;;;0.83;;
19456;SDS011;9867;48.094;11.478;2022-09-13T14:37:53;1.53;;;0.90;;
19456;SDS011;9867;48.094;11.478;2022-09-13T14:40:23;3.97;;;1.10;;
19456;SDS011;9867;48.094;11.478;2022-09-13T14:42:54;3.17;;;1.00;;
19456;SDS011;9867;48.094;11.478;2022-09-13T14:45:22;2.93;;;0.93;;
19456;SDS011;9867;48.094;11.478;2022-09-13T14:47:54;1.13;;;0.90;;
19456;SDS011;9867;48.094;11.478;2022-09-13T14:50:29;1.27;;;0.80;;
19456;SDS011;9867;48.094;11.478;2022-09-13T14:53:01;1.80;;;0.80;;
19456;SDS011;9867;48.094;11.478;2022-09-13T14:55:32;0.80;;;0.80;;
19456;SDS011;9867;48.094;11.478;2022-09-13T14:58:04;1.27;;;0.90;;
19456;SDS011;9867;48.094;11.478;2022-09-13T15:00:34;2.63;;;0.87;;
19456;SDS011;9867;48.094;11.478;2022-09-13T15:03:11;1.00;;;0.80;;
19456;SDS011;9867;48.094;11.478;2022-09-13T15:05:48;3.13;;;0.90;;
19456;SDS011;9867;48.094;11.478;2022-09-13T15:08:24;4.53;;;1.07;;
19456;SDS011;9867;48.094;11.478;2022-09-13T15:10:55;2.53;;;1.00;;
19456;SDS011;9867;48.094;11.478;2022-09-13T15:13:25;2.80;;;0.93;;
19456;SDS011;9867;48.094;11.478;2022-09-13T15:15:53;1.00;;;0.90;;
19456;SDS011;9867;48.094;11.478;2022-09-13T15:18:22;1.47;;;1.00;;
19456;SDS011;9867;48.094;11.478;2022-09-13T15:20:51;2.03;;;0.70;;
19456;SDS011;9867;48.094;11.478;2022-09-13T15:23:22;1.63;;;1.30;;
19456;SDS011;9867;48.094;11.478;2022-09-13T15:25:54;1.57;;;1.27;;
19456;SDS011;9867;48.094;11.478;2022-09-13T15:28:26;4.63;;;1.20;;
19456;SDS011;9867;48.094;11.478;2022-09-13T15:30:56;1.40;;;1.30;;
19456;SDS011;9867;48.094;11.478;2022-09-13T15:33:26;1.50;;;1.40;;
19456;SDS011;9867;48.094;11.478;2022-09-13T15:36:21;2.47;;;1.20;;
19456;SDS011;9867;48.094;11.478;2022-09-13T15:38:57;1.30;;;1.17;;
19456;SDS011;9867;48.094;11.478;2022-09-13T15:41:30;4.07;;;1.00;;
19456;SDS011;9867;48.094;11.478;2022-09-13T15:44:01;2.43;;;1.30;;
19456;SDS011;9867;48.094;11.478;2022-09-13T15:46:31;2.83;;;1.20;;
19456;SDS011;9867;48.094;11.478;2022-09-13T15:49:01;1.00;;;1.00;;
19456;SDS011;9867;48.094;11.478;2022-09-13T15:51:32;1.73;;;1.23;;
19456;SDS011;9867;48.094;11.478;2022-09-13T15:54:04;3.80;;;1.07;;
19456;SDS011;9867;48.094;11.478;2022-09-13T15:56:38;1.70;;;1.30;;
19456;SDS011;9867;48.094;11.478;2022-09-13T15:59:11;2.23;;;1.53;;
19456;SDS011;9867;48.094;11.478;2022-09-13T16:01:39;2.73;;;1.07;;
19456;SDS011;9867;48.094;11.478;2022-09-13T16:04:08;2.37;;;1.90;;